Black Eagle, Montana
Current Conditions -  °F | °C
As of 11:56 PM on Wednesday 22 Oct 2014 (Local Time) from KGFA Reporting Station
Clear Clear  
Wind Chill: 51°   Ceiling: Unl
Heat Index: 51°   Visibility: 10mi
Dew Point: 33°   Wind: 23mph
Humidity: 49%   Direction: 190°S
Pressure: 29.85"   Gusts: 28mph
Location:  47.53°N, 111.28°W
Report Text: KGFA 230556Z AUTO 19020G24KT 10SM CLR 11/00 A2985 RMK AO2 SLP114 T01060003 10132 20093 401510038
Loading
Personal Weather Stations






























Interactive Weather Map
Tropical Storm Tracking
New forecast layout! Learn more

10-Day Weather Forecast

Advertisements
Track Severe Weather on mobile